createdAt,value
2023-03-03T00:03:38.938Z,27.44
2023-03-03T00:07:39.038Z,27.39
2023-03-03T00:11:39.163Z,27.37
2023-03-03T00:15:39.320Z,27.33
2023-03-03T00:19:39.361Z,27.36
2023-03-03T00:23:39.483Z,27.32
2023-03-03T00:27:39.603Z,27.23
2023-03-03T00:31:39.737Z,27.30
2023-03-03T00:35:39.927Z,27.29
2023-03-03T00:39:40.031Z,27.28
2023-03-03T00:43:40.123Z,27.26
2023-03-03T00:47:40.306Z,27.19
2023-03-03T00:51:40.458Z,27.22
2023-03-03T00:55:40.588Z,27.22
2023-03-03T00:59:40.742Z,27.15
2023-03-03T01:03:40.880Z,27.09
2023-03-03T01:07:41.038Z,27.10
2023-03-03T01:11:41.191Z,27.05
2023-03-03T01:15:41.399Z,26.99
2023-03-03T01:19:41.504Z,27.05
2023-03-03T01:23:41.629Z,27.03
2023-03-03T01:27:41.770Z,26.97
2023-03-03T01:31:41.958Z,26.95
2023-03-03T01:35:42.081Z,26.93
2023-03-03T01:39:42.244Z,26.90
2023-03-03T01:43:42.416Z,26.93
2023-03-03T01:47:42.543Z,26.86
2023-03-03T01:51:42.698Z,26.82
2023-03-03T01:55:42.904Z,26.81
2023-03-03T01:59:43.082Z,26.83
2023-03-03T02:03:43.262Z,26.76
2023-03-03T02:07:43.430Z,26.72
2023-03-03T02:11:43.636Z,26.62
2023-03-03T02:15:43.849Z,26.69
2023-03-03T02:19:44.018Z,26.68
2023-03-03T02:23:44.198Z,26.69
2023-03-03T02:27:44.419Z,26.68
2023-03-03T02:31:44.649Z,26.70
2023-03-03T02:35:44.882Z,26.62
2023-03-03T02:39:45.020Z,26.57
2023-03-03T02:43:45.244Z,26.54
2023-03-03T02:47:45.471Z,26.61
2023-03-03T02:51:45.693Z,26.63
2023-03-03T02:55:45.855Z,26.61
2023-03-03T02:59:45.845Z,26.52
2023-03-03T03:03:45.838Z,26.59
2023-03-03T03:07:45.778Z,26.51
2023-03-03T03:11:45.732Z,26.46
2023-03-03T03:15:45.705Z,26.46
2023-03-03T03:19:45.641Z,26.44
2023-03-03T03:23:45.628Z,26.43
2023-03-03T03:27:45.589Z,26.24
2023-03-03T03:31:45.573Z,26.21
2023-03-03T03:35:45.589Z,26.26
2023-03-03T03:39:45.530Z,26.28
2023-03-03T03:43:45.479Z,26.22
2023-03-03T03:47:45.439Z,26.19
2023-03-03T03:51:45.382Z,26.21
2023-03-03T03:55:45.377Z,26.15
2023-03-03T03:59:45.351Z,26.22
2023-03-03T04:03:45.316Z,26.05
2023-03-03T04:07:45.255Z,26.01
2023-03-03T04:11:45.205Z,25.99
2023-03-03T04:15:45.246Z,26.02
2023-03-03T04:19:45.309Z,25.99
2023-03-03T04:23:46.232Z,25.94
2023-03-03T04:27:45.248Z,25.94
2023-03-03T04:31:45.205Z,25.95
2023-03-03T04:35:45.210Z,25.92
2023-03-03T04:39:45.182Z,25.98
2023-03-03T04:43:45.091Z,25.84
2023-03-03T04:47:45.269Z,25.84
2023-03-03T04:51:45.242Z,25.83
2023-03-03T04:55:45.199Z,25.76
2023-03-03T04:59:45.151Z,25.79
2023-03-03T05:03:45.145Z,25.81
2023-03-03T05:07:45.092Z,25.73
2023-03-03T05:11:45.041Z,25.74
2023-03-03T05:15:45.066Z,25.61
2023-03-03T05:19:44.971Z,25.78
2023-03-03T05:23:44.992Z,25.69
2023-03-03T05:27:45.090Z,25.57
2023-03-03T05:31:45.827Z,25.55
2023-03-03T05:35:45.514Z,25.65
2023-03-03T05:39:45.423Z,25.55
2023-03-03T05:43:45.383Z,25.54
2023-03-03T05:47:45.330Z,25.50
2023-03-03T05:51:45.323Z,25.43
2023-03-03T05:55:45.277Z,25.49
2023-03-03T05:59:45.239Z,25.44
2023-03-03T06:03:45.210Z,25.47
2023-03-03T06:07:45.185Z,25.47
2023-03-03T06:11:45.146Z,25.42
2023-03-03T06:15:45.269Z,25.39
2023-03-03T06:19:45.150Z,25.36
2023-03-03T06:23:45.131Z,25.35
2023-03-03T06:27:45.119Z,25.37
2023-03-03T06:31:45.133Z,25.23
2023-03-03T06:35:45.050Z,25.18
2023-03-03T06:39:45.289Z,25.57
2023-03-03T06:43:45.276Z,25.87
2023-03-03T06:47:45.280Z,26.24
2023-03-03T06:51:44.865Z,26.43
2023-03-03T06:55:45.279Z,26.57
2023-03-03T06:59:45.261Z,26.84
2023-03-03T07:03:45.286Z,26.46
2023-03-03T07:07:45.255Z,27.36
2023-03-03T07:11:46.646Z,28.47
2023-03-03T07:15:45.429Z,29.10
2023-03-03T07:19:45.422Z,29.41
2023-03-03T07:23:45.555Z,29.86
2023-03-03T07:27:45.510Z,30.34
2023-03-03T07:31:45.768Z,30.71
2023-03-03T07:35:45.825Z,31.12
2023-03-03T07:39:45.440Z,31.41
2023-03-03T07:43:45.373Z,31.51
2023-03-03T07:47:45.813Z,26.67
2023-03-03T07:51:45.343Z,27.20
2023-03-03T07:55:45.319Z,27.83
2023-03-03T07:59:45.339Z,28.56
2023-03-03T08:03:45.215Z,28.33
2023-03-03T08:07:45.182Z,27.61
2023-03-03T08:11:45.323Z,27.58
2023-03-03T08:15:45.191Z,27.09
2023-03-03T08:19:45.070Z,28.85
2023-03-03T08:23:44.986Z,29.77
2023-03-03T08:27:45.028Z,30.55
2023-03-03T08:31:45.190Z,31.09
2023-03-03T08:35:45.413Z,31.41
2023-03-03T08:39:45.328Z,31.81
2023-03-03T08:43:45.334Z,33.79
2023-03-03T08:47:45.835Z,32.15
2023-03-03T08:51:45.886Z,32.40
2023-03-03T08:55:45.393Z,32.79
2023-03-03T08:59:45.335Z,33.33
2023-03-03T09:03:45.297Z,33.67
2023-03-03T09:07:47.788Z,34.19
2023-03-03T09:11:45.203Z,34.38
2023-03-03T09:15:45.194Z,34.37
2023-03-03T09:19:45.155Z,35.09
2023-03-03T09:23:45.395Z,35.47
2023-03-03T09:27:45.112Z,35.55
2023-03-03T09:31:45.097Z,35.84
2023-03-03T09:35:45.374Z,35.88
2023-03-03T09:39:48.372Z,35.40
2023-03-03T09:43:45.336Z,35.35
2023-03-03T09:47:44.893Z,35.66
2023-03-03T09:51:45.385Z,36.87
2023-03-03T09:55:44.847Z,35.74
2023-03-03T09:59:44.790Z,36.44
2023-03-03T10:03:44.772Z,36.91
2023-03-03T10:07:44.745Z,37.34
2023-03-03T10:11:44.673Z,37.73
2023-03-03T10:15:44.636Z,38.29
2023-03-03T10:19:44.851Z,38.76
2023-03-03T10:23:44.631Z,38.29
2023-03-03T10:27:44.565Z,37.24
2023-03-03T10:31:44.895Z,37.77
2023-03-03T10:35:53.779Z,38.77
2023-03-03T10:39:45.456Z,38.94
2023-03-03T10:43:44.870Z,35.51
2023-03-03T10:47:44.850Z,27.04
2023-03-03T10:51:44.878Z,27.06
2023-03-03T10:55:44.553Z,29.55
2023-03-03T10:59:44.483Z,31.01
2023-03-03T11:03:44.761Z,31.73
2023-03-03T11:07:44.713Z,31.97
2023-03-03T11:11:44.694Z,32.23
2023-03-03T11:15:44.622Z,32.37
2023-03-03T11:19:44.635Z,32.69
2023-03-03T11:23:44.552Z,33.01
2023-03-03T11:27:44.898Z,33.26
2023-03-03T11:31:44.489Z,33.53
2023-03-03T11:35:44.932Z,33.92
2023-03-03T11:39:44.855Z,34.14
2023-03-03T11:43:44.920Z,34.10
2023-03-03T11:47:44.355Z,34.05
2023-03-03T11:51:44.296Z,34.11
2023-03-03T11:55:44.273Z,34.26
2023-03-03T11:59:44.888Z,34.50
2023-03-03T12:03:44.628Z,34.74
2023-03-03T12:07:44.793Z,34.88
2023-03-03T12:11:45.014Z,35.14
2023-03-03T12:15:45.249Z,35.25
2023-03-03T12:19:45.400Z,35.43
2023-03-03T12:23:45.567Z,35.57
2023-03-03T12:27:45.884Z,35.72
2023-03-03T12:31:46.394Z,35.88
2023-03-03T12:35:46.439Z,35.82
2023-03-03T12:39:46.297Z,35.71
2023-03-03T12:43:46.510Z,35.66
2023-03-03T12:47:46.473Z,35.56
2023-03-03T12:51:46.448Z,35.45
2023-03-03T12:55:46.404Z,35.33
2023-03-03T12:59:46.353Z,35.23
2023-03-03T13:03:55.395Z,35.11
2023-03-03T13:07:47.350Z,35.02
2023-03-03T13:11:46.266Z,34.96
2023-03-03T13:15:55.152Z,34.87
2023-03-03T13:19:47.191Z,34.80
2023-03-03T13:23:46.142Z,34.55
2023-03-03T13:27:46.104Z,34.58
2023-03-03T13:31:46.097Z,34.41
2023-03-03T13:35:46.117Z,34.41
2023-03-03T13:39:46.044Z,34.05
2023-03-03T13:43:47.043Z,35.55
2023-03-03T13:47:46.159Z,37.99
2023-03-03T13:51:46.199Z,38.46
2023-03-03T13:55:46.264Z,38.75
2023-03-03T13:59:46.361Z,37.78
2023-03-03T14:03:46.388Z,37.13
2023-03-03T14:07:46.470Z,36.41
2023-03-03T14:11:46.576Z,35.58
2023-03-03T14:15:46.713Z,35.16
2023-03-03T14:19:46.733Z,34.72
2023-03-03T14:23:46.818Z,34.62
2023-03-03T14:27:46.935Z,34.51
2023-03-03T14:31:47.020Z,34.43
2023-03-03T14:35:47.136Z,34.29
2023-03-03T14:39:47.208Z,34.17
2023-03-03T14:43:47.474Z,33.99
2023-03-03T14:47:47.375Z,33.92
2023-03-03T14:51:47.469Z,33.74
2023-03-03T14:55:47.560Z,33.56
2023-03-03T14:59:47.704Z,33.43
2023-03-03T15:03:47.797Z,33.39
2023-03-03T15:07:47.848Z,33.27
2023-03-03T15:11:47.956Z,33.17
2023-03-03T15:15:48.064Z,33.10
2023-03-03T15:19:48.136Z,33.04
2023-03-03T15:23:48.211Z,32.98
2023-03-03T15:27:48.302Z,32.97
2023-03-03T15:31:48.428Z,32.98
2023-03-03T15:35:48.558Z,32.92
2023-03-03T15:39:48.695Z,32.71
2023-03-03T15:43:48.812Z,32.56
2023-03-03T15:47:48.961Z,32.48
2023-03-03T15:52:02.470Z,32.28
2023-03-03T15:55:50.078Z,32.21
2023-03-03T15:59:49.012Z,32.06
2023-03-03T16:03:48.988Z,31.88
2023-03-03T16:07:49.006Z,32.04
2023-03-03T16:11:49.136Z,32.04
2023-03-03T16:15:49.299Z,32.09
2023-03-03T16:19:49.425Z,32.06
2023-03-03T16:23:49.586Z,32.06
2023-03-03T16:27:49.725Z,32.07
2023-03-03T16:31:50.058Z,32.04
2023-03-03T16:35:50.043Z,32.04
2023-03-03T16:39:50.195Z,32.06
2023-03-03T16:43:50.355Z,32.02
2023-03-03T16:47:50.471Z,31.99
2023-03-03T16:51:50.667Z,32.00
2023-03-03T16:55:50.830Z,31.97
2023-03-03T16:59:51.029Z,32.01
2023-03-03T17:03:51.232Z,32.04
2023-03-03T17:07:51.404Z,31.96
2023-03-03T17:11:51.627Z,31.95
2023-03-03T17:15:51.827Z,31.98
2023-03-03T17:19:52.020Z,31.99
2023-03-03T17:23:52.257Z,32.03
2023-03-03T17:27:52.509Z,31.97
2023-03-03T17:31:52.459Z,31.99
2023-03-03T17:35:52.434Z,31.93
2023-03-03T17:39:52.367Z,31.97
2023-03-03T17:43:52.336Z,31.97
2023-03-03T17:47:52.313Z,31.96
2023-03-03T17:51:52.269Z,31.92
2023-03-03T17:55:52.235Z,31.83
2023-03-03T17:59:52.239Z,31.92
2023-03-03T18:03:52.238Z,31.83
2023-03-03T18:07:52.104Z,31.75
2023-03-03T18:11:52.251Z,31.67
2023-03-03T18:16:05.430Z,31.59
2023-03-03T18:19:53.191Z,31.53
2023-03-03T18:23:52.223Z,31.42
2023-03-03T18:27:52.174Z,31.39
2023-03-03T18:31:52.136Z,31.31
2023-03-03T18:35:52.134Z,31.29
2023-03-03T18:39:52.063Z,31.21
2023-03-03T18:43:52.064Z,31.16
2023-03-03T18:47:51.976Z,31.09
2023-03-03T18:51:51.990Z,31.07
2023-03-03T18:55:51.906Z,31.07
2023-03-03T18:59:51.888Z,31.01
2023-03-03T19:03:51.916Z,30.95
2023-03-03T19:07:52.127Z,30.92
2023-03-03T19:11:52.344Z,30.91
2023-03-03T19:15:52.525Z,30.79
2023-03-03T19:19:52.681Z,30.80
2023-03-03T19:23:52.755Z,30.76
2023-03-03T19:27:52.843Z,30.75
2023-03-03T19:31:52.831Z,30.69
2023-03-03T19:35:52.829Z,30.65
2023-03-03T19:39:52.785Z,30.60
2023-03-03T19:43:52.784Z,30.58
2023-03-03T19:47:52.827Z,30.54
2023-03-03T19:51:52.900Z,30.44
2023-03-03T19:55:52.901Z,30.45
2023-03-03T19:59:52.876Z,30.34
2023-03-03T20:03:52.869Z,30.38
2023-03-03T20:07:52.842Z,30.30
2023-03-03T20:11:52.824Z,30.25
2023-03-03T20:15:52.905Z,30.22
2023-03-03T20:19:52.822Z,30.14
2023-03-03T20:23:52.754Z,30.07
2023-03-03T20:27:52.768Z,30.03
2023-03-03T20:31:52.889Z,29.97
2023-03-03T20:35:52.810Z,29.97
2023-03-03T20:39:52.825Z,29.90
2023-03-03T20:43:52.795Z,29.83
2023-03-03T20:47:52.851Z,29.82
2023-03-03T20:51:52.888Z,29.79
2023-03-03T20:55:53.604Z,29.68
2023-03-03T20:59:52.884Z,29.68
2023-03-03T21:03:54.281Z,29.62
2023-03-03T21:07:52.910Z,29.58
2023-03-03T21:11:52.931Z,29.61
2023-03-03T21:15:52.994Z,29.56
2023-03-03T21:19:53.050Z,29.53
2023-03-03T21:23:53.119Z,29.51
2023-03-03T21:27:53.117Z,29.48
2023-03-03T21:31:53.221Z,29.49
2023-03-03T21:35:53.287Z,29.46
2023-03-03T21:39:53.280Z,29.39
2023-03-03T21:43:53.330Z,29.41
2023-03-03T21:47:53.384Z,29.38
2023-03-03T21:51:53.466Z,29.32
2023-03-03T21:55:53.490Z,29.31
2023-03-03T21:59:53.582Z,29.28
2023-03-03T22:03:53.665Z,29.29
2023-03-03T22:07:53.698Z,29.23
2023-03-03T22:11:53.790Z,29.25
2023-03-03T22:15:53.892Z,29.18
2023-03-03T22:19:53.942Z,29.14
2023-03-03T22:23:54.025Z,29.02
2023-03-03T22:27:54.089Z,29.01
2023-03-03T22:31:54.249Z,29.05
2023-03-03T22:35:54.304Z,28.97
2023-03-03T22:39:54.362Z,28.88
2023-03-03T22:43:54.467Z,28.93
2023-03-03T22:47:54.561Z,28.83
2023-03-03T22:51:54.659Z,28.73
2023-03-03T22:55:54.758Z,28.66
2023-03-03T22:59:54.897Z,28.66
2023-03-03T23:03:55.010Z,28.65
2023-03-03T23:07:55.230Z,28.61
2023-03-03T23:11:55.257Z,28.61
2023-03-03T23:15:55.369Z,28.59
2023-03-03T23:19:55.453Z,28.56
2023-03-03T23:23:55.573Z,28.55
2023-03-03T23:27:55.665Z,28.58
2023-03-03T23:31:55.813Z,28.56
2023-03-03T23:35:55.867Z,28.52
2023-03-03T23:39:55.913Z,28.52
2023-03-03T23:43:56.058Z,28.53
2023-03-03T23:47:56.164Z,28.49
2023-03-03T23:51:56.277Z,28.42
2023-03-03T23:55:56.432Z,28.45
2023-03-03T23:59:56.573Z,28.36
